sensor_id;sensor_type;location;lat;lon;timestamp;P1;durP1;ratioP1;P2;durP2;ratioP2
7359;SDS011;3720;48.274;7.796;2024-03-25T00:00:19;4.13;;;1.85;;
7359;SDS011;3720;48.274;7.796;2024-03-25T00:02:52;2.88;;;1.75;;
7359;SDS011;3720;48.274;7.796;2024-03-25T00:05:24;4.35;;;1.95;;
7359;SDS011;3720;48.274;7.796;2024-03-25T00:07:55;3.13;;;1.73;;
7359;SDS011;3720;48.274;7.796;2024-03-25T00:10:28;3.05;;;1.90;;
7359;SDS011;3720;48.274;7.796;2024-03-25T00:12:59;5.57;;;1.90;;
7359;SDS011;3720;48.274;7.796;2024-03-25T00:15:30;3.15;;;1.95;;
7359;SDS011;3720;48.274;7.796;2024-03-25T00:18:03;4.45;;;2.00;;
7359;SDS011;3720;48.274;7.796;2024-03-25T00:20:35;4.35;;;1.80;;
7359;SDS011;3720;48.274;7.796;2024-03-25T00:23:06;4.00;;;1.80;;
7359;SDS011;3720;48.274;7.796;2024-03-25T00:25:38;4.30;;;1.90;;
7359;SDS011;3720;48.274;7.796;2024-03-25T00:28:09;5.35;;;2.15;;
7359;SDS011;3720;48.274;7.796;2024-03-25T00:30:41;5.20;;;2.30;;
7359;SDS011;3720;48.274;7.796;2024-03-25T00:33:13;3.97;;;2.03;;
7359;SDS011;3720;48.274;7.796;2024-03-25T00:35:46;3.33;;;2.17;;
7359;SDS011;3720;48.274;7.796;2024-03-25T00:38:17;3.72;;;2.17;;
7359;SDS011;3720;48.274;7.796;2024-03-25T00:40:49;4.05;;;2.30;;
7359;SDS011;3720;48.274;7.796;2024-03-25T00:43:20;4.32;;;2.30;;
7359;SDS011;3720;48.274;7.796;2024-03-25T00:45:52;4.63;;;2.40;;
7359;SDS011;3720;48.274;7.796;2024-03-25T00:48:24;5.70;;;2.15;;
7359;SDS011;3720;48.274;7.796;2024-03-25T00:50:56;5.53;;;2.35;;
7359;SDS011;3720;48.274;7.796;2024-03-25T00:53:27;5.22;;;2.50;;
7359;SDS011;3720;48.274;7.796;2024-03-25T00:55:59;5.70;;;2.45;;
7359;SDS011;3720;48.274;7.796;2024-03-25T00:58:30;5.30;;;2.63;;
7359;SDS011;3720;48.274;7.796;2024-03-25T01:01:01;5.90;;;2.40;;
7359;SDS011;3720;48.274;7.796;2024-03-25T01:03:34;7.53;;;3.00;;
7359;SDS011;3720;48.274;7.796;2024-03-25T01:06:05;7.72;;;2.67;;
7359;SDS011;3720;48.274;7.796;2024-03-25T01:08:36;6.50;;;2.75;;
7359;SDS011;3720;48.274;7.796;2024-03-25T01:11:08;5.35;;;2.80;;
7359;SDS011;3720;48.274;7.796;2024-03-25T01:13:39;5.10;;;2.70;;
7359;SDS011;3720;48.274;7.796;2024-03-25T01:16:11;6.45;;;2.92;;
7359;SDS011;3720;48.274;7.796;2024-03-25T01:18:43;7.78;;;3.03;;
7359;SDS011;3720;48.274;7.796;2024-03-25T01:21:15;5.90;;;2.67;;
7359;SDS011;3720;48.274;7.796;2024-03-25T01:23:46;8.27;;;2.88;;
7359;SDS011;3720;48.274;7.796;2024-03-25T01:26:18;5.15;;;2.75;;
7359;SDS011;3720;48.274;7.796;2024-03-25T01:28:49;6.47;;;2.85;;
7359;SDS011;3720;48.274;7.796;2024-03-25T01:31:21;8.35;;;2.67;;
7359;SDS011;3720;48.274;7.796;2024-03-25T01:33:53;7.63;;;2.60;;
7359;SDS011;3720;48.274;7.796;2024-03-25T01:36:25;5.35;;;2.80;;
7359;SDS011;3720;48.274;7.796;2024-03-25T01:38:57;5.40;;;2.70;;
7359;SDS011;3720;48.274;7.796;2024-03-25T01:41:28;6.68;;;2.60;;
7359;SDS011;3720;48.274;7.796;2024-03-25T01:43:59;6.10;;;2.65;;
7359;SDS011;3720;48.274;7.796;2024-03-25T01:46:32;5.05;;;2.47;;
7359;SDS011;3720;48.274;7.796;2024-03-25T01:49:04;5.88;;;2.80;;
7359;SDS011;3720;48.274;7.796;2024-03-25T01:51:36;6.95;;;2.80;;
7359;SDS011;3720;48.274;7.796;2024-03-25T01:54:09;6.38;;;2.95;;
7359;SDS011;3720;48.274;7.796;2024-03-25T01:56:43;5.72;;;2.90;;
7359;SDS011;3720;48.274;7.796;2024-03-25T01:59:16;6.07;;;2.95;;
7359;SDS011;3720;48.274;7.796;2024-03-25T02:01:49;6.63;;;3.08;;
7359;SDS011;3720;48.274;7.796;2024-03-25T02:04:22;7.63;;;3.20;;
7359;SDS011;3720;48.274;7.796;2024-03-25T02:06:54;7.55;;;2.80;;
7359;SDS011;3720;48.274;7.796;2024-03-25T02:09:28;7.15;;;3.20;;
7359;SDS011;3720;48.274;7.796;2024-03-25T02:12:00;6.93;;;3.10;;
7359;SDS011;3720;48.274;7.796;2024-03-25T02:14:31;6.32;;;2.83;;
7359;SDS011;3720;48.274;7.796;2024-03-25T02:17:03;7.32;;;2.92;;
7359;SDS011;3720;48.274;7.796;2024-03-25T02:19:37;6.00;;;2.90;;
7359;SDS011;3720;48.274;7.796;2024-03-25T02:22:10;6.35;;;3.00;;
7359;SDS011;3720;48.274;7.796;2024-03-25T02:24:41;7.03;;;3.00;;
7359;SDS011;3720;48.274;7.796;2024-03-25T02:27:17;6.95;;;3.20;;
7359;SDS011;3720;48.274;7.796;2024-03-25T02:29:48;8.93;;;3.40;;
7359;SDS011;3720;48.274;7.796;2024-03-25T02:32:20;7.45;;;3.10;;
7359;SDS011;3720;48.274;7.796;2024-03-25T02:34:51;5.53;;;3.08;;
7359;SDS011;3720;48.274;7.796;2024-03-25T02:37:23;6.28;;;2.70;;
7359;SDS011;3720;48.274;7.796;2024-03-25T02:39:55;8.45;;;3.00;;
7359;SDS011;3720;48.274;7.796;2024-03-25T02:42:30;7.85;;;3.15;;
7359;SDS011;3720;48.274;7.796;2024-03-25T02:45:02;7.07;;;2.90;;
7359;SDS011;3720;48.274;7.796;2024-03-25T02:47:35;7.97;;;3.33;;
7359;SDS011;3720;48.274;7.796;2024-03-25T02:50:06;7.00;;;3.10;;
7359;SDS011;3720;48.274;7.796;2024-03-25T02:52:38;8.35;;;3.08;;
7359;SDS011;3720;48.274;7.796;2024-03-25T02:55:09;8.02;;;2.80;;
7359;SDS011;3720;48.274;7.796;2024-03-25T02:57:43;8.32;;;2.85;;
7359;SDS011;3720;48.274;7.796;2024-03-25T03:00:13;5.18;;;2.70;;
7359;SDS011;3720;48.274;7.796;2024-03-25T03:02:45;5.53;;;3.00;;
7359;SDS011;3720;48.274;7.796;2024-03-25T03:05:16;7.57;;;2.90;;
7359;SDS011;3720;48.274;7.796;2024-03-25T03:07:48;5.82;;;2.90;;
7359;SDS011;3720;48.274;7.796;2024-03-25T03:10:19;5.80;;;2.65;;
7359;SDS011;3720;48.274;7.796;2024-03-25T03:12:52;5.25;;;2.40;;
7359;SDS011;3720;48.274;7.796;2024-03-25T03:15:23;5.97;;;2.72;;
7359;SDS011;3720;48.274;7.796;2024-03-25T03:17:55;7.03;;;3.03;;
7359;SDS011;3720;48.274;7.796;2024-03-25T03:20:27;6.82;;;2.80;;
7359;SDS011;3720;48.274;7.796;2024-03-25T03:22:59;9.77;;;3.30;;
7359;SDS011;3720;48.274;7.796;2024-03-25T03:25:30;7.03;;;2.47;;
7359;SDS011;3720;48.274;7.796;2024-03-25T03:28:03;7.20;;;2.60;;
7359;SDS011;3720;48.274;7.796;2024-03-25T03:30:34;8.30;;;2.90;;
7359;SDS011;3720;48.274;7.796;2024-03-25T03:33:06;7.30;;;2.75;;
7359;SDS011;3720;48.274;7.796;2024-03-25T03:35:37;7.50;;;2.90;;
7359;SDS011;3720;48.274;7.796;2024-03-25T03:38:09;4.70;;;2.72;;
7359;SDS011;3720;48.274;7.796;2024-03-25T03:40:40;5.82;;;2.60;;
7359;SDS011;3720;48.274;7.796;2024-03-25T03:43:13;7.35;;;2.83;;
7359;SDS011;3720;48.274;7.796;2024-03-25T03:45:45;7.10;;;2.72;;
7359;SDS011;3720;48.274;7.796;2024-03-25T03:48:16;5.00;;;2.72;;
7359;SDS011;3720;48.274;7.796;2024-03-25T03:50:48;8.48;;;2.92;;
7359;SDS011;3720;48.274;7.796;2024-03-25T03:53:18;6.15;;;2.60;;
7359;SDS011;3720;48.274;7.796;2024-03-25T03:55:53;5.38;;;2.97;;
7359;SDS011;3720;48.274;7.796;2024-03-25T03:58:26;6.97;;;3.03;;
7359;SDS011;3720;48.274;7.796;2024-03-25T04:00:58;6.03;;;2.75;;
7359;SDS011;3720;48.274;7.796;2024-03-25T04:03:30;9.52;;;3.00;;
7359;SDS011;3720;48.274;7.796;2024-03-25T04:06:07;5.78;;;2.90;;
7359;SDS011;3720;48.274;7.796;2024-03-25T04:08:38;7.25;;;2.78;;
7359;SDS011;3720;48.274;7.796;2024-03-25T04:11:10;5.97;;;2.83;;
7359;SDS011;3720;48.274;7.796;2024-03-25T04:13:42;7.10;;;2.92;;
7359;SDS011;3720;48.274;7.796;2024-03-25T04:16:14;5.63;;;2.53;;
7359;SDS011;3720;48.274;7.796;2024-03-25T04:18:47;5.05;;;2.80;;
7359;SDS011;3720;48.274;7.796;2024-03-25T04:21:19;6.38;;;3.22;;
7359;SDS011;3720;48.274;7.796;2024-03-25T04:23:49;7.07;;;3.58;;
7359;SDS011;3720;48.274;7.796;2024-03-25T04:26:21;3.65;;;2.75;;
7359;SDS011;3720;48.274;7.796;2024-03-25T04:28:54;5.95;;;2.70;;
7359;SDS011;3720;48.274;7.796;2024-03-25T04:31:25;6.22;;;2.90;;
7359;SDS011;3720;48.274;7.796;2024-03-25T04:33:56;5.70;;;3.20;;
7359;SDS011;3720;48.274;7.796;2024-03-25T04:36:28;8.40;;;2.97;;
7359;SDS011;3720;48.274;7.796;2024-03-25T04:38:59;5.07;;;3.05;;
7359;SDS011;3720;48.274;7.796;2024-03-25T04:41:30;5.05;;;3.00;;
7359;SDS011;3720;48.274;7.796;2024-03-25T04:44:02;6.13;;;3.08;;
7359;SDS011;3720;48.274;7.796;2024-03-25T04:46:33;3.92;;;2.17;;
7359;SDS011;3720;48.274;7.796;2024-03-25T04:49:04;5.80;;;2.70;;
7359;SDS011;3720;48.274;7.796;2024-03-25T04:51:35;4.78;;;3.00;;
7359;SDS011;3720;48.274;7.796;2024-03-25T04:54:06;5.75;;;2.75;;
7359;SDS011;3720;48.274;7.796;2024-03-25T04:56:37;4.18;;;2.60;;
7359;SDS011;3720;48.274;7.796;2024-03-25T04:59:09;4.80;;;2.50;;
7359;SDS011;3720;48.274;7.796;2024-03-25T05:01:40;5.50;;;2.80;;
7359;SDS011;3720;48.274;7.796;2024-03-25T05:04:11;6.68;;;2.92;;
7359;SDS011;3720;48.274;7.796;2024-03-25T05:06:41;6.07;;;2.92;;
7359;SDS011;3720;48.274;7.796;2024-03-25T05:09:12;5.47;;;2.70;;
7359;SDS011;3720;48.274;7.796;2024-03-25T05:11:43;8.68;;;3.00;;
7359;SDS011;3720;48.274;7.796;2024-03-25T05:14:16;5.00;;;2.70;;
7359;SDS011;3720;48.274;7.796;2024-03-25T05:16:46;6.97;;;3.53;;
7359;SDS011;3720;48.274;7.796;2024-03-25T05:19:17;8.10;;;3.05;;
7359;SDS011;3720;48.274;7.796;2024-03-25T05:21:48;6.45;;;2.85;;
7359;SDS011;3720;48.274;7.796;2024-03-25T05:24:19;5.40;;;2.75;;
7359;SDS011;3720;48.274;7.796;2024-03-25T05:26:50;6.95;;;3.17;;
7359;SDS011;3720;48.274;7.796;2024-03-25T05:29:22;5.40;;;3.13;;
7359;SDS011;3720;48.274;7.796;2024-03-25T05:31:57;7.05;;;3.05;;
7359;SDS011;3720;48.274;7.796;2024-03-25T05:34:29;4.60;;;3.00;;
7359;SDS011;3720;48.274;7.796;2024-03-25T05:37:00;4.43;;;2.60;;
7359;SDS011;3720;48.274;7.796;2024-03-25T05:39:30;3.63;;;2.78;;
7359;SDS011;3720;48.274;7.796;2024-03-25T05:42:01;5.72;;;3.00;;
7359;SDS011;3720;48.274;7.796;2024-03-25T05:44:34;5.15;;;3.00;;
7359;SDS011;3720;48.274;7.796;2024-03-25T05:47:05;7.30;;;3.53;;
7359;SDS011;3720;48.274;7.796;2024-03-25T05:49:36;6.05;;;3.70;;
7359;SDS011;3720;48.274;7.796;2024-03-25T05:52:07;5.93;;;3.92;;
7359;SDS011;3720;48.274;7.796;2024-03-25T05:54:38;5.93;;;3.70;;
7359;SDS011;3720;48.274;7.796;2024-03-25T05:57:08;7.57;;;3.78;;
7359;SDS011;3720;48.274;7.796;2024-03-25T05:59:41;7.15;;;3.60;;
7359;SDS011;3720;48.274;7.796;2024-03-25T06:02:12;7.35;;;3.72;;
7359;SDS011;3720;48.274;7.796;2024-03-25T06:04:43;6.85;;;4.20;;
7359;SDS011;3720;48.274;7.796;2024-03-25T06:07:23;6.70;;;4.05;;
7359;SDS011;3720;48.274;7.796;2024-03-25T06:09:54;5.05;;;3.58;;
7359;SDS011;3720;48.274;7.796;2024-03-25T06:12:25;7.13;;;3.97;;
7359;SDS011;3720;48.274;7.796;2024-03-25T06:14:57;7.72;;;4.00;;
7359;SDS011;3720;48.274;7.796;2024-03-25T06:17:28;7.32;;;3.88;;
7359;SDS011;3720;48.274;7.796;2024-03-25T06:19:59;10.07;;;3.95;;
7359;SDS011;3720;48.274;7.796;2024-03-25T06:22:30;6.15;;;4.18;;
7359;SDS011;3720;48.274;7.796;2024-03-25T06:25:01;6.90;;;3.83;;
7359;SDS011;3720;48.274;7.796;2024-03-25T06:27:32;8.52;;;4.40;;
7359;SDS011;3720;48.274;7.796;2024-03-25T06:30:05;6.90;;;4.10;;
7359;SDS011;3720;48.274;7.796;2024-03-25T06:32:55;9.57;;;4.75;;
7359;SDS011;3720;48.274;7.796;2024-03-25T06:35:44;8.93;;;5.32;;
7359;SDS011;3720;48.274;7.796;2024-03-25T06:38:15;7.80;;;5.00;;
7359;SDS011;3720;48.274;7.796;2024-03-25T06:40:46;9.25;;;4.60;;
7359;SDS011;3720;48.274;7.796;2024-03-25T06:43:17;7.00;;;3.95;;
7359;SDS011;3720;48.274;7.796;2024-03-25T06:45:49;6.07;;;3.78;;
7359;SDS011;3720;48.274;7.796;2024-03-25T06:48:20;6.45;;;3.60;;
7359;SDS011;3720;48.274;7.796;2024-03-25T06:50:55;6.10;;;3.60;;
7359;SDS011;3720;48.274;7.796;2024-03-25T06:53:26;5.03;;;3.20;;
7359;SDS011;3720;48.274;7.796;2024-03-25T06:55:57;5.18;;;3.15;;
7359;SDS011;3720;48.274;7.796;2024-03-25T06:58:29;6.93;;;3.20;;
7359;SDS011;3720;48.274;7.796;2024-03-25T07:01:05;8.20;;;4.45;;
7359;SDS011;3720;48.274;7.796;2024-03-25T07:03:37;4.60;;;3.15;;
7359;SDS011;3720;48.274;7.796;2024-03-25T07:06:08;5.60;;;3.25;;
7359;SDS011;3720;48.274;7.796;2024-03-25T07:08:39;8.20;;;3.60;;
7359;SDS011;3720;48.274;7.796;2024-03-25T07:11:10;6.43;;;3.30;;
7359;SDS011;3720;48.274;7.796;2024-03-25T07:13:41;6.90;;;3.35;;
7359;SDS011;3720;48.274;7.796;2024-03-25T07:16:13;6.10;;;3.58;;
7359;SDS011;3720;48.274;7.796;2024-03-25T07:18:44;5.97;;;2.80;;
7359;SDS011;3720;48.274;7.796;2024-03-25T07:21:15;6.75;;;3.05;;
7359;SDS011;3720;48.274;7.796;2024-03-25T07:23:46;8.27;;;3.72;;
7359;SDS011;3720;48.274;7.796;2024-03-25T07:26:17;6.05;;;3.10;;
7359;SDS011;3720;48.274;7.796;2024-03-25T07:28:48;7.57;;;2.90;;
7359;SDS011;3720;48.274;7.796;2024-03-25T07:31:20;6.35;;;3.20;;
7359;SDS011;3720;48.274;7.796;2024-03-25T07:33:51;6.57;;;2.65;;
7359;SDS011;3720;48.274;7.796;2024-03-25T07:36:22;5.82;;;2.42;;
7359;SDS011;3720;48.274;7.796;2024-03-25T07:38:53;8.82;;;3.25;;
7359;SDS011;3720;48.274;7.796;2024-03-25T07:41:24;9.20;;;2.95;;
7359;SDS011;3720;48.274;7.796;2024-03-25T07:43:54;4.88;;;2.40;;
7359;SDS011;3720;48.274;7.796;2024-03-25T07:46:27;5.90;;;2.47;;
7359;SDS011;3720;48.274;7.796;2024-03-25T07:48:58;5.40;;;2.28;;
7359;SDS011;3720;48.274;7.796;2024-03-25T07:51:29;6.60;;;2.53;;
7359;SDS011;3720;48.274;7.796;2024-03-25T07:53:59;4.82;;;2.10;;
7359;SDS011;3720;48.274;7.796;2024-03-25T07:56:30;5.30;;;2.13;;
7359;SDS011;3720;48.274;7.796;2024-03-25T07:59:02;4.95;;;2.10;;
7359;SDS011;3720;48.274;7.796;2024-03-25T08:01:34;4.88;;;2.10;;
7359;SDS011;3720;48.274;7.796;2024-03-25T08:04:05;4.35;;;2.00;;
7359;SDS011;3720;48.274;7.796;2024-03-25T08:06:36;3.55;;;1.75;;
7359;SDS011;3720;48.274;7.796;2024-03-25T08:09:07;4.13;;;1.80;;
7359;SDS011;3720;48.274;7.796;2024-03-25T08:11:39;7.30;;;2.00;;
7359;SDS011;3720;48.274;7.796;2024-03-25T08:14:10;5.68;;;2.22;;
7359;SDS011;3720;48.274;7.796;2024-03-25T08:16:42;3.55;;;1.73;;
7359;SDS011;3720;48.274;7.796;2024-03-25T08:19:13;5.13;;;2.00;;
7359;SDS011;3720;48.274;7.796;2024-03-25T08:21:44;6.80;;;1.83;;
7359;SDS011;3720;48.274;7.796;2024-03-25T08:24:15;4.47;;;1.90;;
7359;SDS011;3720;48.274;7.796;2024-03-25T08:26:46;4.60;;;1.60;;
7359;SDS011;3720;48.274;7.796;2024-03-25T08:29:17;5.53;;;2.10;;
7359;SDS011;3720;48.274;7.796;2024-03-25T08:31:49;4.28;;;1.95;;
7359;SDS011;3720;48.274;7.796;2024-03-25T08:34:20;4.60;;;2.00;;
7359;SDS011;3720;48.274;7.796;2024-03-25T08:36:51;3.55;;;1.77;;
7359;SDS011;3720;48.274;7.796;2024-03-25T08:39:22;4.88;;;1.67;;
7359;SDS011;3720;48.274;7.796;2024-03-25T08:41:53;3.60;;;1.63;;
7359;SDS011;3720;48.274;7.796;2024-03-25T08:44:24;5.13;;;1.95;;
7359;SDS011;3720;48.274;7.796;2024-03-25T08:46:56;5.50;;;1.80;;
7359;SDS011;3720;48.274;7.796;2024-03-25T08:49:27;4.80;;;1.95;;
7359;SDS011;3720;48.274;7.796;2024-03-25T08:51:58;4.55;;;1.58;;
7359;SDS011;3720;48.274;7.796;2024-03-25T08:54:29;4.88;;;2.03;;
7359;SDS011;3720;48.274;7.796;2024-03-25T08:57:00;5.65;;;2.03;;
7359;SDS011;3720;48.274;7.796;2024-03-25T08:59:31;4.55;;;1.88;;
7359;SDS011;3720;48.274;7.796;2024-03-25T09:02:03;5.97;;;2.50;;
7359;SDS011;3720;48.274;7.796;2024-03-25T09:04:34;7.45;;;2.42;;
7359;SDS011;3720;48.274;7.796;2024-03-25T09:07:05;7.35;;;2.58;;
7359;SDS011;3720;48.274;7.796;2024-03-25T09:09:36;5.28;;;2.30;;
7359;SDS011;3720;48.274;7.796;2024-03-25T09:12:24;4.57;;;2.30;;
7359;SDS011;3720;48.274;7.796;2024-03-25T09:14:55;5.22;;;2.17;;
7359;SDS011;3720;48.274;7.796;2024-03-25T09:17:27;4.90;;;2.13;;
7359;SDS011;3720;48.274;7.796;2024-03-25T09:19:58;3.92;;;2.17;;
7359;SDS011;3720;48.274;7.796;2024-03-25T09:22:29;4.90;;;2.30;;
7359;SDS011;3720;48.274;7.796;2024-03-25T09:25:00;5.95;;;2.20;;
7359;SDS011;3720;48.274;7.796;2024-03-25T09:27:31;6.28;;;2.33;;
7359;SDS011;3720;48.274;7.796;2024-03-25T09:30:02;4.93;;;2.20;;
7359;SDS011;3720;48.274;7.796;2024-03-25T09:32:35;6.18;;;2.20;;
7359;SDS011;3720;48.274;7.796;2024-03-25T09:35:06;4.38;;;2.30;;
7359;SDS011;3720;48.274;7.796;2024-03-25T09:37:37;4.07;;;2.17;;
7359;SDS011;3720;48.274;7.796;2024-03-25T09:40:09;2.92;;;2.03;;
7359;SDS011;3720;48.274;7.796;2024-03-25T09:42:42;7.60;;;2.00;;
7359;SDS011;3720;48.274;7.796;2024-03-25T09:45:17;4.80;;;2.20;;
7359;SDS011;3720;48.274;7.796;2024-03-25T09:47:50;4.25;;;2.00;;
7359;SDS011;3720;48.274;7.796;2024-03-25T09:50:22;4.63;;;1.80;;
7359;SDS011;3720;48.274;7.796;2024-03-25T09:52:53;4.07;;;2.03;;
7359;SDS011;3720;48.274;7.796;2024-03-25T09:55:23;5.47;;;1.90;;
7359;SDS011;3720;48.274;7.796;2024-03-25T09:57:55;4.10;;;1.77;;
7359;SDS011;3720;48.274;7.796;2024-03-25T10:00:27;3.70;;;1.98;;
7359;SDS011;3720;48.274;7.796;2024-03-25T10:02:59;4.97;;;2.08;;
7359;SDS011;3720;48.274;7.796;2024-03-25T10:05:30;3.75;;;1.80;;
7359;SDS011;3720;48.274;7.796;2024-03-25T10:08:01;4.88;;;2.00;;
7359;SDS011;3720;48.274;7.796;2024-03-25T10:10:33;4.60;;;1.90;;
7359;SDS011;3720;48.274;7.796;2024-03-25T10:13:04;3.72;;;1.83;;
7359;SDS011;3720;48.274;7.796;2024-03-25T10:15:35;4.32;;;2.00;;
7359;SDS011;3720;48.274;7.796;2024-03-25T10:18:07;4.15;;;1.70;;
7359;SDS011;3720;48.274;7.796;2024-03-25T10:20:47;5.07;;;2.10;;
7359;SDS011;3720;48.274;7.796;2024-03-25T10:23:19;4.57;;;1.70;;
7359;SDS011;3720;48.274;7.796;2024-03-25T10:25:51;2.33;;;1.33;;
7359;SDS011;3720;48.274;7.796;2024-03-25T10:28:23;2.42;;;1.27;;
7359;SDS011;3720;48.274;7.796;2024-03-25T10:30:54;2.78;;;1.40;;
7359;SDS011;3720;48.274;7.796;2024-03-25T10:33:34;2.50;;;1.13;;
7359;SDS011;3720;48.274;7.796;2024-03-25T10:36:05;3.50;;;1.20;;
7359;SDS011;3720;48.274;7.796;2024-03-25T10:38:39;3.92;;;1.40;;
7359;SDS011;3720;48.274;7.796;2024-03-25T10:41:10;4.13;;;1.42;;
7359;SDS011;3720;48.274;7.796;2024-03-25T10:43:47;2.65;;;1.10;;
7359;SDS011;3720;48.274;7.796;2024-03-25T10:46:19;2.28;;;1.20;;
7359;SDS011;3720;48.274;7.796;2024-03-25T10:48:53;2.95;;;1.33;;
7359;SDS011;3720;48.274;7.796;2024-03-25T10:51:31;2.33;;;1.20;;
7359;SDS011;3720;48.274;7.796;2024-03-25T10:54:05;3.78;;;1.55;;
7359;SDS011;3720;48.274;7.796;2024-03-25T10:56:36;5.68;;;3.22;;
7359;SDS011;3720;48.274;7.796;2024-03-25T10:59:07;3.05;;;1.40;;
7359;SDS011;3720;48.274;7.796;2024-03-25T11:01:39;5.50;;;1.50;;
7359;SDS011;3720;48.274;7.796;2024-03-25T11:04:11;3.22;;;1.60;;
7359;SDS011;3720;48.274;7.796;2024-03-25T11:06:43;3.28;;;1.35;;
7359;SDS011;3720;48.274;7.796;2024-03-25T11:09:23;3.00;;;1.45;;
7359;SDS011;3720;48.274;7.796;2024-03-25T11:11:57;3.17;;;1.25;;
7359;SDS011;3720;48.274;7.796;2024-03-25T11:14:29;2.10;;;1.20;;
7359;SDS011;3720;48.274;7.796;2024-03-25T11:17:00;3.72;;;1.20;;
7359;SDS011;3720;48.274;7.796;2024-03-25T11:19:32;3.30;;;1.27;;
7359;SDS011;3720;48.274;7.796;2024-03-25T11:22:07;2.97;;;1.52;;
7359;SDS011;3720;48.274;7.796;2024-03-25T11:24:43;3.40;;;1.10;;
7359;SDS011;3720;48.274;7.796;2024-03-25T11:27:14;3.25;;;1.15;;
7359;SDS011;3720;48.274;7.796;2024-03-25T11:29:51;3.15;;;1.05;;
7359;SDS011;3720;48.274;7.796;2024-03-25T11:32:22;1.90;;;1.00;;
7359;SDS011;3720;48.274;7.796;2024-03-25T11:34:55;2.95;;;1.30;;
7359;SDS011;3720;48.274;7.796;2024-03-25T11:37:26;2.63;;;1.10;;
7359;SDS011;3720;48.274;7.796;2024-03-25T11:40:00;2.22;;;0.90;;
7359;SDS011;3720;48.274;7.796;2024-03-25T11:42:33;2.83;;;1.10;;
7359;SDS011;3720;48.274;7.796;2024-03-25T11:45:04;2.30;;;0.98;;
7359;SDS011;3720;48.274;7.796;2024-03-25T11:47:36;3.13;;;1.27;;
7359;SDS011;3720;48.274;7.796;2024-03-25T11:50:09;2.83;;;1.00;;
7359;SDS011;3720;48.274;7.796;2024-03-25T11:52:41;1.63;;;1.15;;
7359;SDS011;3720;48.274;7.796;2024-03-25T11:55:15;2.35;;;1.00;;
7359;SDS011;3720;48.274;7.796;2024-03-25T11:57:54;2.80;;;1.15;;
7359;SDS011;3720;48.274;7.796;2024-03-25T12:00:25;2.67;;;1.30;;
7359;SDS011;3720;48.274;7.796;2024-03-25T12:02:56;1.20;;;0.93;;
7359;SDS011;3720;48.274;7.796;2024-03-25T12:05:28;3.40;;;1.17;;
7359;SDS011;3720;48.274;7.796;2024-03-25T12:08:00;2.22;;;1.10;;
7359;SDS011;3720;48.274;7.796;2024-03-25T12:10:31;3.30;;;1.20;;
7359;SDS011;3720;48.274;7.796;2024-03-25T12:13:20;1.48;;;0.90;;
7359;SDS011;3720;48.274;7.796;2024-03-25T12:15:51;1.73;;;0.98;;
7359;SDS011;3720;48.274;7.796;2024-03-25T12:18:22;2.63;;;1.10;;
7359;SDS011;3720;48.274;7.796;2024-03-25T12:20:55;3.05;;;1.00;;
7359;SDS011;3720;48.274;7.796;2024-03-25T12:23:29;2.05;;;1.15;;
7359;SDS011;3720;48.274;7.796;2024-03-25T12:26:00;3.80;;;1.20;;
7359;SDS011;3720;48.274;7.796;2024-03-25T12:28:32;3.78;;;1.35;;
7359;SDS011;3720;48.274;7.796;2024-03-25T12:31:06;2.67;;;1.13;;
7359;SDS011;3720;48.274;7.796;2024-03-25T12:33:40;4.38;;;0.90;;
7359;SDS011;3720;48.274;7.796;2024-03-25T12:36:12;2.97;;;1.10;;
7359;SDS011;3720;48.274;7.796;2024-03-25T12:38:43;3.15;;;1.02;;
7359;SDS011;3720;48.274;7.796;2024-03-25T12:41:24;1.95;;;0.95;;
7359;SDS011;3720;48.274;7.796;2024-03-25T12:43:54;2.03;;;1.27;;
7359;SDS011;3720;48.274;7.796;2024-03-25T12:46:25;2.22;;;1.00;;
7359;SDS011;3720;48.274;7.796;2024-03-25T12:48:56;2.38;;;1.00;;
7359;SDS011;3720;48.274;7.796;2024-03-25T12:51:28;3.60;;;1.15;;
7359;SDS011;3720;48.274;7.796;2024-03-25T12:53:59;2.85;;;1.10;;
7359;SDS011;3720;48.274;7.796;2024-03-25T12:56:30;2.05;;;0.90;;
7359;SDS011;3720;48.274;7.796;2024-03-25T12:59:01;2.65;;;0.80;;
7359;SDS011;3720;48.274;7.796;2024-03-25T13:01:32;2.63;;;1.00;;
7359;SDS011;3720;48.274;7.796;2024-03-25T13:04:03;1.75;;;0.73;;
7359;SDS011;3720;48.274;7.796;2024-03-25T13:06:36;1.50;;;0.90;;
7359;SDS011;3720;48.274;7.796;2024-03-25T13:09:06;2.15;;;0.90;;
7359;SDS011;3720;48.274;7.796;2024-03-25T13:11:37;2.75;;;0.93;;
7359;SDS011;3720;48.274;7.796;2024-03-25T13:14:10;4.68;;;1.20;;
7359;SDS011;3720;48.274;7.796;2024-03-25T13:16:42;2.13;;;1.10;;
7359;SDS011;3720;48.274;7.796;2024-03-25T13:19:13;2.83;;;1.15;;
7359;SDS011;3720;48.274;7.796;2024-03-25T13:21:45;2.83;;;1.10;;
7359;SDS011;3720;48.274;7.796;2024-03-25T13:24:16;2.25;;;1.10;;
7359;SDS011;3720;48.274;7.796;2024-03-25T13:26:47;3.33;;;1.15;;
7359;SDS011;3720;48.274;7.796;2024-03-25T13:29:17;2.08;;;0.73;;
7359;SDS011;3720;48.274;7.796;2024-03-25T13:31:49;1.73;;;0.75;;
7359;SDS011;3720;48.274;7.796;2024-03-25T13:34:20;1.73;;;0.77;;
7359;SDS011;3720;48.274;7.796;2024-03-25T13:36:52;3.55;;;1.00;;
7359;SDS011;3720;48.274;7.796;2024-03-25T13:39:23;1.40;;;0.80;;
7359;SDS011;3720;48.274;7.796;2024-03-25T13:41:54;3.47;;;0.90;;
7359;SDS011;3720;48.274;7.796;2024-03-25T13:44:25;1.80;;;0.90;;
7359;SDS011;3720;48.274;7.796;2024-03-25T13:46:56;1.63;;;0.80;;
7359;SDS011;3720;48.274;7.796;2024-03-25T13:49:27;1.23;;;0.82;;
7359;SDS011;3720;48.274;7.796;2024-03-25T13:51:59;2.25;;;0.90;;
7359;SDS011;3720;48.274;7.796;2024-03-25T13:54:30;1.52;;;0.90;;
7359;SDS011;3720;48.274;7.796;2024-03-25T13:57:01;2.20;;;1.13;;
7359;SDS011;3720;48.274;7.796;2024-03-25T13:59:32;2.47;;;0.75;;
7359;SDS011;3720;48.274;7.796;2024-03-25T14:02:03;1.25;;;0.80;;
7359;SDS011;3720;48.274;7.796;2024-03-25T14:04:34;1.38;;;0.65;;
7359;SDS011;3720;48.274;7.796;2024-03-25T14:07:06;2.67;;;0.80;;
7359;SDS011;3720;48.274;7.796;2024-03-25T14:09:37;2.55;;;0.95;;
7359;SDS011;3720;48.274;7.796;2024-03-25T14:12:08;2.55;;;0.80;;
7359;SDS011;3720;48.274;7.796;2024-03-25T14:14:39;1.67;;;0.93;;
7359;SDS011;3720;48.274;7.796;2024-03-25T14:17:10;1.75;;;0.80;;
7359;SDS011;3720;48.274;7.796;2024-03-25T14:19:40;1.38;;;0.90;;
7359;SDS011;3720;48.274;7.796;2024-03-25T14:22:13;1.45;;;0.60;;
7359;SDS011;3720;48.274;7.796;2024-03-25T14:24:44;1.45;;;0.68;;
7359;SDS011;3720;48.274;7.796;2024-03-25T14:27:14;1.27;;;0.60;;
7359;SDS011;3720;48.274;7.796;2024-03-25T14:29:45;2.80;;;0.75;;
7359;SDS011;3720;48.274;7.796;2024-03-25T14:32:18;1.20;;;0.80;;
7359;SDS011;3720;48.274;7.796;2024-03-25T14:34:49;1.98;;;0.80;;
7359;SDS011;3720;48.274;7.796;2024-03-25T14:37:22;2.90;;;0.80;;
7359;SDS011;3720;48.274;7.796;2024-03-25T14:39:53;1.83;;;0.75;;
7359;SDS011;3720;48.274;7.796;2024-03-25T14:42:23;2.50;;;0.90;;
7359;SDS011;3720;48.274;7.796;2024-03-25T14:44:54;2.45;;;0.88;;
7359;SDS011;3720;48.274;7.796;2024-03-25T14:47:25;1.05;;;0.70;;
7359;SDS011;3720;48.274;7.796;2024-03-25T14:49:56;2.63;;;0.82;;
7359;SDS011;3720;48.274;7.796;2024-03-25T14:52:29;1.45;;;0.80;;
7359;SDS011;3720;48.274;7.796;2024-03-25T14:55:00;1.25;;;0.75;;
7359;SDS011;3720;48.274;7.796;2024-03-25T14:57:31;1.48;;;0.90;;
7359;SDS011;3720;48.274;7.796;2024-03-25T15:00:02;2.15;;;0.98;;
7359;SDS011;3720;48.274;7.796;2024-03-25T15:02:33;1.83;;;0.88;;
7359;SDS011;3720;48.274;7.796;2024-03-25T15:05:04;1.65;;;0.77;;
7359;SDS011;3720;48.274;7.796;2024-03-25T15:07:37;2.00;;;0.85;;
7359;SDS011;3720;48.274;7.796;2024-03-25T15:10:08;1.15;;;0.63;;
7359;SDS011;3720;48.274;7.796;2024-03-25T15:12:39;4.10;;;0.90;;
7359;SDS011;3720;48.274;7.796;2024-03-25T15:15:10;3.60;;;2.13;;
7359;SDS011;3720;48.274;7.796;2024-03-25T15:17:41;1.77;;;0.93;;
7359;SDS011;3720;48.274;7.796;2024-03-25T15:20:12;2.10;;;0.88;;
7359;SDS011;3720;48.274;7.796;2024-03-25T15:22:44;2.38;;;1.10;;
7359;SDS011;3720;48.274;7.796;2024-03-25T15:25:15;2.00;;;1.25;;
7359;SDS011;3720;48.274;7.796;2024-03-25T15:27:46;1.15;;;0.60;;
7359;SDS011;3720;48.274;7.796;2024-03-25T15:30:17;2.90;;;0.80;;
7359;SDS011;3720;48.274;7.796;2024-03-25T15:32:48;2.60;;;0.80;;
7359;SDS011;3720;48.274;7.796;2024-03-25T15:35:19;1.55;;;0.90;;
7359;SDS011;3720;48.274;7.796;2024-03-25T15:37:51;2.67;;;0.82;;
7359;SDS011;3720;48.274;7.796;2024-03-25T15:40:22;1.80;;;0.90;;
7359;SDS011;3720;48.274;7.796;2024-03-25T15:42:53;1.30;;;0.80;;